createdAt,value
2022-08-27T00:00:24.785Z,21.90
2022-08-27T00:02:52.425Z,21.90
2022-08-27T00:05:21.149Z,21.90
2022-08-27T00:07:49.553Z,21.90
2022-08-27T00:10:23.566Z,21.90
2022-08-27T00:12:51.825Z,21.90
2022-08-27T00:15:21.030Z,21.90
2022-08-27T00:17:49.267Z,21.90
2022-08-27T00:20:18.194Z,21.90
2022-08-27T00:22:45.902Z,21.80
2022-08-27T00:25:14.314Z,21.80
2022-08-27T00:27:42.038Z,21.80
2022-08-27T00:30:13.122Z,21.80
2022-08-27T00:32:41.326Z,21.80
2022-08-27T00:35:09.491Z,21.80
2022-08-27T00:37:37.527Z,21.80
2022-08-27T00:40:06.893Z,21.70
2022-08-27T00:42:34.679Z,21.70
2022-08-27T00:45:02.707Z,21.70
2022-08-27T00:47:30.967Z,21.70
2022-08-27T00:50:01.975Z,21.70
2022-08-27T00:52:32.238Z,21.70
2022-08-27T00:55:04.319Z,21.70
2022-08-27T00:57:32.659Z,21.70
2022-08-27T01:00:00.852Z,21.70
2022-08-27T01:02:30.646Z,21.70
2022-08-27T01:05:10.093Z,21.70
2022-08-27T01:07:40.899Z,21.70
2022-08-27T01:10:16.088Z,21.60
2022-08-27T01:12:44.220Z,21.60
2022-08-27T01:15:19.447Z,21.60
2022-08-27T01:17:48.331Z,21.60
2022-08-27T01:20:22.339Z,21.50
2022-08-27T01:22:53.348Z,21.60
2022-08-27T01:25:21.828Z,21.60
2022-08-27T01:27:49.556Z,21.50
2022-08-27T01:30:19.612Z,21.50
2022-08-27T01:32:47.874Z,21.50
2022-08-27T01:35:17.622Z,21.50
2022-08-27T01:37:46.679Z,21.50
2022-08-27T01:40:16.778Z,21.50
2022-08-27T01:42:46.249Z,21.40
2022-08-27T01:45:16.073Z,21.40
2022-08-27T01:47:43.809Z,21.40
2022-08-27T01:50:14.259Z,21.40
2022-08-27T01:52:41.894Z,21.40
2022-08-27T01:55:12.179Z,21.40
2022-08-27T01:57:40.096Z,21.40
2022-08-27T02:00:09.811Z,21.40
2022-08-27T02:02:37.522Z,21.40
2022-08-27T02:05:05.475Z,21.40
2022-08-27T02:07:33.142Z,21.30
2022-08-27T02:10:00.780Z,21.40
2022-08-27T02:12:28.483Z,21.30
2022-08-27T02:14:56.118Z,21.30
2022-08-27T02:17:23.763Z,21.30
2022-08-27T02:19:51.559Z,21.30
2022-08-27T02:22:19.275Z,21.30
2022-08-27T02:24:46.936Z,21.30
2022-08-27T02:27:14.924Z,21.30
2022-08-27T02:29:42.759Z,21.30
2022-08-27T02:32:23.329Z,21.30
2022-08-27T02:34:58.542Z,21.30
2022-08-27T02:37:26.490Z,21.20
2022-08-27T02:39:54.166Z,21.20
2022-08-27T02:42:22.256Z,21.30
2022-08-27T02:44:50.040Z,21.20
2022-08-27T02:47:18.799Z,21.30
2022-08-27T02:49:46.467Z,21.20
2022-08-27T02:52:14.708Z,21.20
2022-08-27T02:54:43.968Z,21.20
2022-08-27T02:57:12.524Z,21.10
2022-08-27T02:59:40.145Z,21.20
2022-08-27T03:02:10.931Z,21.20
2022-08-27T03:04:38.833Z,21.20
2022-08-27T03:07:06.825Z,21.10
2022-08-27T03:09:34.551Z,21.20
2022-08-27T03:12:02.897Z,21.10
2022-08-27T03:14:31.213Z,21.10
2022-08-27T03:17:19.554Z,21.10
2022-08-27T03:19:46.258Z,21.10
2022-08-27T03:22:14.965Z,21.10
2022-08-27T03:24:42.831Z,21.10
2022-08-27T03:27:11.157Z,21.10
2022-08-27T03:29:38.802Z,21.10
2022-08-27T03:32:07.706Z,21.10
2022-08-27T03:34:35.323Z,21.00
2022-08-27T03:37:03.266Z,21.00
2022-08-27T03:39:31.014Z,21.00
2022-08-27T03:41:59.418Z,21.00
2022-08-27T03:44:27.110Z,21.00
2022-08-27T03:46:54.758Z,21.00
2022-08-27T03:49:23.039Z,21.10
2022-08-27T03:51:52.075Z,21.00
2022-08-27T03:54:22.179Z,21.00
2022-08-27T03:56:50.119Z,21.00
2022-08-27T03:59:17.784Z,21.00
2022-08-27T04:01:45.837Z,21.00
2022-08-27T04:04:13.931Z,20.90
2022-08-27T04:06:42.249Z,21.00
2022-08-27T04:09:09.870Z,20.90
2022-08-27T04:11:37.590Z,21.00
2022-08-27T04:14:06.938Z,20.90
2022-08-27T04:16:52.461Z,20.90
2022-08-27T04:19:23.868Z,20.90
2022-08-27T04:21:54.282Z,20.90
2022-08-27T04:24:22.326Z,20.90
2022-08-27T04:26:50.027Z,20.90
2022-08-27T04:29:18.076Z,20.90
2022-08-27T04:31:46.010Z,20.90
2022-08-27T04:34:13.973Z,20.90
2022-08-27T04:36:41.735Z,20.90
2022-08-27T04:39:09.720Z,20.80
2022-08-27T04:41:37.553Z,20.90
2022-08-27T04:44:07.155Z,20.90
2022-08-27T04:46:40.337Z,20.80
2022-08-27T04:49:10.589Z,20.80
2022-08-27T04:51:40.091Z,20.90
2022-08-27T04:54:08.798Z,20.80
2022-08-27T04:56:37.754Z,20.80
2022-08-27T04:59:07.070Z,20.90
2022-08-27T05:01:35.155Z,20.80
2022-08-27T05:04:03.258Z,20.80
2022-08-27T05:06:31.640Z,20.80
2022-08-27T05:08:59.790Z,20.80
2022-08-27T05:11:32.044Z,20.70
2022-08-27T05:14:00.495Z,20.80
2022-08-27T05:16:28.110Z,20.80
2022-08-27T05:18:55.813Z,20.80
2022-08-27T05:21:24.814Z,20.80
2022-08-27T05:23:54.180Z,20.80
2022-08-27T05:26:21.927Z,20.80
2022-08-27T05:28:49.803Z,20.70
2022-08-27T05:31:19.717Z,20.70
2022-08-27T05:33:47.519Z,20.70
2022-08-27T05:36:19.956Z,20.70
2022-08-27T05:38:48.880Z,20.70
2022-08-27T05:41:18.640Z,20.70
2022-08-27T05:43:50.187Z,20.70
2022-08-27T05:46:20.647Z,20.80
2022-08-27T05:48:48.698Z,20.70
2022-08-27T05:51:25.867Z,20.80
2022-08-27T05:54:04.628Z,20.70
2022-08-27T05:56:37.518Z,20.70
2022-08-27T05:59:23.408Z,20.70
2022-08-27T06:01:52.467Z,20.70
2022-08-27T06:04:21.347Z,20.70
2022-08-27T06:06:49.941Z,20.80
2022-08-27T06:09:20.054Z,20.60
2022-08-27T06:11:48.421Z,20.40
2022-08-27T06:14:16.123Z,20.30
2022-08-27T06:16:44.595Z,20.30
2022-08-27T06:19:13.125Z,20.30
2022-08-27T06:21:42.135Z,20.30
2022-08-27T06:24:12.142Z,20.30
2022-08-27T06:26:40.798Z,20.20
2022-08-27T06:29:09.340Z,20.10
2022-08-27T06:31:37.555Z,20.00
2022-08-27T06:34:11.091Z,20.00
2022-08-27T06:36:40.703Z,19.90
2022-08-27T06:39:08.938Z,19.80
2022-08-27T06:41:36.971Z,19.80
2022-08-27T06:44:04.601Z,19.80
2022-08-27T06:46:32.824Z,19.80
2022-08-27T06:49:01.299Z,19.70
2022-08-27T06:51:31.363Z,19.70
2022-08-27T06:54:00.344Z,19.70
2022-08-27T06:56:28.827Z,19.70
2022-08-27T06:58:57.961Z,19.60
2022-08-27T07:01:28.349Z,19.60
2022-08-27T07:04:02.828Z,19.50
2022-08-27T07:06:31.914Z,19.50
2022-08-27T07:09:00.145Z,19.50
2022-08-27T07:11:29.435Z,19.50
2022-08-27T07:13:57.336Z,19.50
2022-08-27T07:16:25.949Z,19.40
2022-08-27T07:18:55.208Z,19.50
2022-08-27T07:21:23.247Z,19.40
2022-08-27T07:23:53.023Z,19.40
2022-08-27T07:26:21.816Z,19.40
2022-08-27T07:28:50.038Z,19.40
2022-08-27T07:31:19.919Z,19.40
2022-08-27T07:33:52.995Z,19.40
2022-08-27T07:36:24.750Z,19.40
2022-08-27T07:39:01.018Z,19.40
2022-08-27T07:41:30.769Z,19.40
2022-08-27T07:44:20.186Z,19.30
2022-08-27T07:46:49.551Z,19.40
2022-08-27T07:49:18.290Z,19.40
2022-08-27T07:51:45.978Z,19.40
2022-08-27T07:54:13.962Z,19.40
2022-08-27T07:56:42.110Z,19.40
2022-08-27T07:59:10.266Z,19.30
2022-08-27T08:01:38.977Z,19.40
2022-08-27T08:04:06.954Z,19.30
2022-08-27T08:06:37.822Z,19.30
2022-08-27T08:09:06.806Z,19.40
2022-08-27T08:11:38.330Z,19.40
2022-08-27T08:14:06.318Z,19.40
2022-08-27T08:16:33.992Z,19.40
2022-08-27T08:19:02.188Z,19.40
2022-08-27T08:21:29.818Z,19.40
2022-08-27T08:23:57.799Z,19.40
2022-08-27T08:26:25.548Z,19.40
2022-08-27T08:28:55.507Z,19.40
2022-08-27T08:31:23.920Z,19.40
2022-08-27T08:33:52.104Z,19.40
2022-08-27T08:36:20.207Z,19.40
2022-08-27T08:38:48.211Z,19.50
2022-08-27T08:41:35.027Z,19.50
2022-08-27T08:44:05.827Z,19.50
2022-08-27T08:46:37.765Z,19.50
2022-08-27T08:49:34.936Z,19.50
2022-08-27T08:52:09.644Z,19.50
2022-08-27T08:54:38.503Z,19.60
2022-08-27T08:57:22.605Z,19.60
2022-08-27T09:00:05.264Z,19.60
2022-08-27T09:02:33.181Z,19.60
2022-08-27T09:05:05.260Z,19.60
2022-08-27T09:07:36.169Z,19.70
2022-08-27T09:10:11.606Z,19.70
2022-08-27T09:12:39.325Z,19.70
2022-08-27T09:15:12.428Z,19.70
2022-08-27T09:17:41.833Z,19.80
2022-08-27T09:20:13.194Z,19.80
2022-08-27T09:22:53.751Z,19.90
2022-08-27T09:25:25.582Z,19.90
2022-08-27T09:27:55.554Z,19.90
2022-08-27T09:30:29.928Z,19.90
2022-08-27T09:33:02.545Z,19.90
2022-08-27T09:35:35.614Z,19.90
2022-08-27T09:38:04.578Z,19.90
2022-08-27T09:40:48.329Z,20.00
2022-08-27T09:43:28.146Z,20.00
2022-08-27T09:45:57.949Z,20.10
2022-08-27T09:48:33.611Z,20.10
2022-08-27T09:51:09.031Z,20.10
2022-08-27T09:53:44.914Z,20.20
2022-08-27T09:56:23.596Z,20.20
2022-08-27T09:58:53.899Z,20.30
2022-08-27T10:01:26.905Z,20.30
2022-08-27T10:04:09.254Z,20.40
2022-08-27T10:06:37.612Z,20.40
2022-08-27T10:09:14.147Z,20.40
2022-08-27T10:11:46.080Z,20.50
2022-08-27T10:14:17.222Z,20.50
2022-08-27T10:16:53.034Z,20.50
2022-08-27T10:19:40.689Z,20.60
2022-08-27T10:22:11.602Z,20.60
2022-08-27T10:24:45.296Z,20.60
2022-08-27T10:27:32.032Z,20.60
2022-08-27T10:30:09.392Z,20.60
2022-08-27T10:32:40.220Z,20.70
2022-08-27T10:35:19.961Z,20.60
2022-08-27T10:38:08.956Z,20.70
2022-08-27T10:40:44.412Z,20.60
2022-08-27T10:43:15.489Z,20.70
2022-08-27T10:45:46.346Z,20.70
2022-08-27T10:48:17.369Z,20.70
2022-08-27T10:50:54.905Z,20.80
2022-08-27T10:53:30.321Z,20.80
2022-08-27T10:56:06.189Z,20.80
2022-08-27T10:58:41.749Z,20.90
2022-08-27T11:01:27.995Z,20.90
2022-08-27T11:04:00.554Z,21.00
2022-08-27T11:06:33.981Z,21.00
2022-08-27T11:09:12.253Z,21.30
